GMML Airport Information

Runway Information
Runway 02 Length 8861 ft width 148 ft
Elevation 223 ft Threshold 0 ft Heading 16
Runway 20 Length 8861 ft Width 148 ft
Elevation 217 ft Threshold 0 ft Heading 196
Runway 04 Length 8202 ft width 148 ft
Elevation 202 ft Threshold 0 ft Heading 32
Runway 22 Length 8202 ft Width 148 ft
Elevation 202 ft Threshold 0 ft Heading 212
Airport Frequencies
Type APP Name LAAYOUNE A Frequency 127.5 MHZ
Type TWR Name LAAYOUNE T Frequency 131.1 MHZ
Airport Navaids
Type VOR-DME Name Laayoune Frequency 112100 KHZ
Airport Weather Information & NOTAM
ADDS - METARS form results

(1126 UTC 17 July 2018)
 
METAR text: GMML 171100Z 04021KT 8000 SCT025 25/15 Q1015 NOSIG
Conditions at: GMML (LAAYOUNE/HASSAN , MA) observed 1100 UTC 17 July 2018
Temperature: 25.0°C (77°F)
Dewpoint: 15.0°C (59°F) [RH = 54%]
Pressure (altimeter): 29.97 inches Hg (1015.0 mb)
Winds: from the NE (40 degrees) at 24 MPH (21 knots; 10.9 m/s)
Visibility: 5 miles (8 km)
Ceiling: at least 12,000 feet AGL
Clouds: scattered clouds at 2500 feet AGL
Weather: no significant weather observed at this time